Time;durP1;ratioP1;P1;durP2;ratioP2;P2;SDS_P1;SDS_P2;PMS_P1;PMS_P2;Temp;Humidity;BMP_temperature;BMP_pressure;BME280_temperature;BME280_humidity;BME280_pressure;Samples;Min_cycle;Max_cycle;Signal;HPM_P1;HPM_P2
2021/12/23 00:01:42;;;;;;;39.35;19.55;;;-2.30;99.90;;;;;;5044067;28;20040;-72
2021/12/23 00:04:10;;;;;;;43.30;19.77;;;-2.20;99.90;;;;;;5024783;28;20021;-74
2021/12/23 00:06:37;;;;;;;38.38;19.27;;;-2.20;99.90;;;;;;5021835;28;20024;-79
2021/12/23 00:09:04;;;;;;;40.17;17.88;;;-2.20;99.90;;;;;;5042625;28;20029;-74
2021/12/23 00:11:39;;;;;;;40.28;18.73;;;-2.20;99.90;;;;;;5038180;28;20061;-74
2021/12/23 00:14:08;;;;;;;38.50;19.73;;;-2.30;99.90;;;;;;5043213;28;20057;-72
2021/12/23 00:16:49;;;;;;;42.38;19.75;;;-2.30;99.90;;;;;;5045719;28;20523;-72
2021/12/23 00:24:31;;;;;;;49.05;19.85;;;-2.20;99.90;;;;;;5045623;28;20039;-72
2021/12/23 00:26:57;;;;;;;40.92;18.90;;;-2.20;99.90;;;;;;5041943;28;20036;-71
2021/12/23 00:29:22;;;;;;;39.70;18.90;;;-2.20;99.90;;;;;;5047386;28;20330;-71
2021/12/23 00:31:48;;;;;;;40.77;20.20;;;-2.20;99.90;;;;;;5044897;28;20030;-71
2021/12/23 00:34:16;;;;;;;39.77;19.20;;;-2.20;99.90;;;;;;5044436;28;20067;-71
2021/12/23 00:36:44;;;;;;;44.35;19.48;;;-2.30;99.90;;;;;;5025738;28;20013;-71
2021/12/23 00:39:12;;;;;;;36.92;18.15;;;-2.30;99.90;;;;;;5040088;28;20017;-70
2021/12/23 00:41:42;;;;;;;35.47;18.70;;;-2.20;99.90;;;;;;5042789;28;20012;-70
2021/12/23 00:44:09;;;;;;;34.95;18.60;;;-2.20;99.90;;;;;;5042065;28;20013;-70
2021/12/23 00:46:36;;;;;;;38.70;18.67;;;-2.20;99.90;;;;;;5040396;28;20021;-71
2021/12/23 00:49:08;;;;;;;36.85;18.50;;;-2.20;99.90;;;;;;5038479;28;20343;-71
2021/12/23 00:51:35;;;;;;;32.92;17.20;;;-2.30;99.90;;;;;;5042502;28;20025;-71
2021/12/23 00:54:05;;;;;;;41.53;18.08;;;-2.30;99.90;;;;;;5023901;28;20017;-71
2021/12/23 00:56:35;;;;;;;37.20;19.17;;;-2.20;99.90;;;;;;5028249;28;20740;-71
2021/12/23 00:59:11;;;;;;;35.47;17.67;;;-2.30;99.90;;;;;;5022855;28;20027;-72
2021/12/23 01:01:39;;;;;;;37.47;17.75;;;-2.30;99.90;;;;;;5021642;28;20021;-71
2021/12/23 01:04:04;;;;;;;38.55;17.45;;;-2.30;99.90;;;;;;5040200;28;20028;-71
2021/12/23 01:06:31;;;;;;;33.97;16.80;;;-2.20;99.90;;;;;;5043604;28;20032;-70
2021/12/23 01:08:59;;;;;;;;;;;-2.20;99.90;;;;;;5022579;28;20141;-72
2021/12/23 01:11:26;;;;;;;33.80;17.73;;;-2.30;99.90;;;;;;5042521;28;20023;-71
2021/12/23 01:17:23;;;;;;;35.60;16.15;;;-2.30;99.90;;;;;;5004666;28;20032;-72
2021/12/23 01:19:40;;;;;;;33.25;17.67;;;-2.30;99.90;;;;;;5043107;28;20056;-72
2021/12/23 01:22:07;;;;;;;32.90;16.63;;;-2.20;99.90;;;;;;5039481;28;20005;-71
2021/12/23 01:24:33;;;;;;;36.95;18.05;;;-2.30;99.90;;;;;;5041767;28;20033;-71
2021/12/23 01:27:00;;;;;;;37.22;16.95;;;-2.20;99.90;;;;;;5037472;28;20908;-71
2021/12/23 01:29:27;;;;;;;;;;;-2.20;99.90;;;;;;5042547;28;20045;-71
2021/12/23 01:31:54;;;;;;;35.00;16.92;;;-2.20;99.90;;;;;;5038104;28;19908;-71
2021/12/23 01:34:26;;;;;;;;;;;-2.20;99.90;;;;;;5029336;28;20030;-71
2021/12/23 01:36:52;;;;;;;35.60;16.35;;;-2.20;99.90;;;;;;5022305;28;20451;-72
2021/12/23 01:39:18;;;;;;;32.47;16.70;;;-2.20;99.90;;;;;;5044612;28;20577;-71
2021/12/23 01:41:43;;;;;;;34.53;18.10;;;-2.20;99.90;;;;;;5042461;28;20120;-70
2021/12/23 01:44:09;;;;;;;39.40;17.90;;;-2.20;99.90;;;;;;5019498;28;20524;-71
2021/12/23 01:46:35;;;;;;;39.50;17.30;;;-2.20;99.90;;;;;;5043101;28;20046;-71
2021/12/23 01:49:03;;;;;;;33.33;16.83;;;-2.20;99.90;;;;;;5041602;28;21380;-71
2021/12/23 01:51:30;;;;;;;34.17;16.35;;;-2.30;99.90;;;;;;5041972;28;20033;-71
2021/12/23 01:53:56;;;;;;;35.47;16.15;;;-2.30;99.90;;;;;;5040847;28;20025;-71
2021/12/23 01:56:25;;;;;;;38.87;18.23;;;-2.30;99.90;;;;;;5042958;28;20107;-71
2021/12/23 01:58:52;;;;;;;32.88;16.83;;;-2.30;99.90;;;;;;5022372;28;20025;-71
2021/12/23 02:01:18;;;;;;;32.33;15.85;;;-2.30;99.90;;;;;;5043753;28;20036;-71
2021/12/23 02:03:44;;;;;;;32.93;17.20;;;-2.30;99.90;;;;;;5040383;28;20025;-71
2021/12/23 02:06:10;;;;;;;33.60;16.97;;;-2.40;99.90;;;;;;5039040;28;20031;-70
2021/12/23 02:08:37;;;;;;;;;;;-2.40;99.90;;;;;;5027736;28;20025;-73
2021/12/23 02:11:05;;;;;;;36.97;15.98;;;-2.50;99.90;;;;;;5021781;28;19998;-71
2021/12/23 02:13:33;;;;;;;37.75;17.42;;;-2.40;99.90;;;;;;5044914;28;20030;-71
2021/12/23 02:15:59;;;;;;;33.28;16.55;;;-2.50;99.90;;;;;;5021751;28;20048;-71
2021/12/23 02:18:25;;;;;;;33.27;16.43;;;-2.50;99.90;;;;;;5043345;28;20023;-71
2021/12/23 02:20:53;;;;;;;35.17;19.23;;;-2.50;99.90;;;;;;5039747;28;20267;-71
2021/12/23 02:23:21;;;;;;;37.33;18.17;;;-2.40;99.90;;;;;;5044607;28;20045;-71
2021/12/23 02:25:49;;;;;;;45.50;18.52;;;-2.40;99.90;;;;;;5043734;28;20577;-71
2021/12/23 02:28:20;;;;;;;38.83;18.30;;;-2.40;99.90;;;;;;5043499;28;20016;-71
2021/12/23 02:30:51;;;;;;;39.38;17.65;;;-2.40;99.90;;;;;;5023288;28;20493;-71
2021/12/23 02:33:20;;;;;;;36.00;18.02;;;-2.50;99.90;;;;;;5046163;28;20035;-71
2021/12/23 02:35:46;;;;;;;36.30;17.65;;;-2.40;99.90;;;;;;5025057;28;20111;-70
2021/12/23 02:38:12;;;;;;;39.63;19.00;;;-2.40;99.90;;;;;;5041029;28;20095;-70
2021/12/23 02:40:40;;;;;;;39.90;17.58;;;-2.40;99.90;;;;;;5047767;28;20073;-70
2021/12/23 02:43:14;;;;;;;39.03;18.58;;;-2.50;99.90;;;;;;5043384;28;20056;-71
2021/12/23 02:45:43;;;;;;;36.80;17.30;;;-2.50;99.90;;;;;;5048290;28;20033;-70
2021/12/23 02:48:14;;;;;;;34.13;18.20;;;-2.40;99.90;;;;;;5045034;28;20814;-70
2021/12/23 02:50:41;;;;;;;32.20;17.98;;;-2.40;99.90;;;;;;5046961;28;20025;-71
2021/12/23 02:53:08;;;;;;;36.65;18.45;;;-2.50;99.90;;;;;;5022950;28;20416;-70
2021/12/23 02:55:34;;;;;;;35.78;17.27;;;-2.40;99.90;;;;;;5050031;28;20072;-71
2021/12/23 02:57:59;;;;;;;33.10;18.13;;;-2.30;99.90;;;;;;5045167;28;20496;-70
2021/12/23 03:00:25;;;;;;;37.03;18.67;;;-2.30;99.90;;;;;;5045745;28;20442;-70
2021/12/23 03:02:50;;;;;;;43.43;18.07;;;-2.30;99.90;;;;;;5043675;28;20090;-70
2021/12/23 03:05:17;;;;;;;35.17;17.10;;;-2.20;99.90;;;;;;5027824;28;20032;-70
2021/12/23 03:07:43;;;;;;;36.78;17.88;;;-2.20;99.90;;;;;;5047318;28;20024;-70
2021/12/23 03:10:10;;;;;;;42.63;17.50;;;-2.20;99.90;;;;;;5025841;28;20834;-71
2021/12/23 03:12:38;;;;;;;37.60;18.83;;;-2.30;99.90;;;;;;5024713;28;20017;-70
2021/12/23 03:15:05;;;;;;;39.53;17.90;;;-2.30;99.90;;;;;;5044409;28;20087;-72
2021/12/23 03:17:31;;;;;;;;;;;-2.30;99.90;;;;;;5050029;28;20531;-71
2021/12/23 03:19:57;;;;;;;37.35;17.42;;;-2.30;99.90;;;;;;5039261;28;19912;-71
2021/12/23 03:22:22;;;;;;;38.37;18.43;;;-2.20;99.90;;;;;;5049552;28;20028;-70
2021/12/23 03:24:48;;;;;;;34.33;18.00;;;-2.30;99.90;;;;;;5047793;28;20036;-71
2021/12/23 03:27:14;;;;;;;35.55;17.73;;;-2.30;99.90;;;;;;5042280;28;20104;-71
2021/12/23 03:29:41;;;;;;;39.27;18.33;;;-2.30;99.90;;;;;;5046194;28;20111;-70
2021/12/23 03:32:07;;;;;;;36.30;17.92;;;-2.30;99.90;;;;;;5023278;28;20107;-70
2021/12/23 03:34:33;;;;;;;36.58;18.25;;;-2.30;99.90;;;;;;5049463;28;20040;-71
2021/12/23 03:37:01;;;;;;;37.30;17.53;;;-2.30;99.90;;;;;;5042819;28;20025;-71
2021/12/23 03:39:26;;;;;;;32.97;17.40;;;-2.20;99.90;;;;;;5048287;28;20044;-70
2021/12/23 03:41:52;;;;;;;38.17;17.67;;;-2.30;99.90;;;;;;5043797;28;20047;-71
2021/12/23 03:44:18;;;;;;;32.73;16.93;;;-2.20;99.90;;;;;;5029140;28;20027;-70
2021/12/23 03:46:44;;;;;;;38.40;17.90;;;-2.20;99.90;;;;;;5044445;28;20165;-70
2021/12/23 03:49:10;;;;;;;36.40;17.13;;;-2.10;99.90;;;;;;5021287;28;20113;-70
2021/12/23 03:51:36;;;;;;;37.42;17.92;;;-2.00;99.90;;;;;;5024518;28;20057;-71
2021/12/23 03:54:05;;;;;;;36.90;18.10;;;-2.00;99.90;;;;;;5021291;28;20205;-71
2021/12/23 03:56:37;;;;;;;31.27;17.35;;;-1.90;99.90;;;;;;5044501;28;20029;-71
2021/12/23 03:59:03;;;;;;;35.00;17.92;;;-2.00;99.90;;;;;;5037705;28;20087;-70
2021/12/23 04:01:30;;;;;;;40.65;19.77;;;-2.10;99.90;;;;;;5027997;28;20050;-70
2021/12/23 04:03:57;;;;;;;38.38;17.88;;;-2.10;99.90;;;;;;5040030;28;20103;-70
2021/12/23 04:06:23;;;;;;;;;;;-2.10;99.90;;;;;;5030200;28;20477;-71
2021/12/23 04:08:49;;;;;;;39.80;18.45;;;-2.10;99.90;;;;;;5040302;28;19959;-71
2021/12/23 04:11:15;;;;;;;36.42;17.98;;;-2.10;99.90;;;;;;5045317;28;20043;-73
2021/12/23 04:13:41;;;;;;;37.17;18.33;;;-2.10;99.90;;;;;;5031018;28;20021;-70
2021/12/23 04:16:07;;;;;;;36.37;17.73;;;-2.10;99.90;;;;;;5022375;28;20355;-71
2021/12/23 04:18:33;;;;;;;40.53;18.80;;;-2.10;99.90;;;;;;5046084;28;20020;-71
2021/12/23 04:20:58;;;;;;;37.07;17.53;;;-2.20;99.90;;;;;;5039262;28;20247;-71
2021/12/23 04:23:29;;;;;;;37.77;17.53;;;-2.20;99.90;;;;;;5029771;28;20024;-71
2021/12/23 04:25:56;;;;;;;37.97;17.08;;;-2.20;99.90;;;;;;5041469;28;20052;-71
2021/12/23 04:28:24;;;;;;;39.60;18.77;;;-2.20;99.90;;;;;;5027746;28;20043;-70
2021/12/23 04:30:50;;;;;;;32.83;17.20;;;-2.10;99.90;;;;;;5025538;28;20057;-71
2021/12/23 04:33:18;;;;;;;33.85;17.05;;;-2.10;99.90;;;;;;5040954;28;20035;-70
2021/12/23 04:35:45;;;;;;;39.40;19.15;;;-2.10;99.90;;;;;;5039342;28;20674;-71
2021/12/23 04:38:12;;;;;;;38.25;18.77;;;-2.10;99.90;;;;;;5040548;28;20024;-72
2021/12/23 04:40:39;;;;;;;38.15;19.40;;;-2.10;99.90;;;;;;5043849;28;20437;-70
2021/12/23 04:43:06;;;;;;;37.33;18.52;;;-2.20;99.90;;;;;;5038470;28;20108;-70
2021/12/23 04:45:32;;;;;;;34.10;16.83;;;-2.20;99.90;;;;;;5045442;28;20033;-70
2021/12/23 04:48:00;;;;;;;33.83;19.17;;;-2.30;99.90;;;;;;5021004;28;20059;-71
2021/12/23 04:50:26;;;;;;;34.03;18.50;;;-2.40;99.90;;;;;;5025260;28;20037;-70
2021/12/23 04:52:52;;;;;;;37.42;18.00;;;-2.40;99.90;;;;;;5042196;28;20037;-70
2021/12/23 04:55:18;;;;;;;36.10;18.80;;;-2.50;99.90;;;;;;5046163;28;20047;-71
2021/12/23 04:57:46;;;;;;;37.72;18.40;;;-2.50;99.90;;;;;;5043325;28;20139;-71
2021/12/23 05:00:16;;;;;;;39.45;19.02;;;-2.50;99.90;;;;;;5021793;28;20143;-71
2021/12/23 05:02:43;;;;;;;36.50;19.30;;;-2.50;99.90;;;;;;5048178;28;20016;-70
2021/12/23 05:05:09;;;;;;;43.25;18.85;;;-2.50;99.90;;;;;;5039376;28;20064;-70
2021/12/23 05:07:37;;;;;;;39.92;19.13;;;-2.50;99.90;;;;;;5045183;28;20146;-71
2021/12/23 05:10:06;;;;;;;41.03;20.08;;;-2.40;99.90;;;;;;5020457;28;20159;-71
2021/12/23 05:12:35;;;;;;;40.03;19.35;;;-2.40;99.90;;;;;;5027353;28;20940;-70
2021/12/23 05:15:01;;;;;;;36.50;18.63;;;-2.40;99.90;;;;;;5020888;28;20044;-71
2021/12/23 05:17:28;;;;;;;41.80;19.80;;;-2.40;99.90;;;;;;5045943;28;20536;-71
2021/12/23 05:19:53;;;;;;;43.40;20.40;;;-2.40;99.90;;;;;;5040656;28;20505;-71
2021/12/23 05:22:19;;;;;;;37.00;18.77;;;-2.50;99.90;;;;;;5024453;28;20179;-71
2021/12/23 05:24:46;;;;;;;42.13;19.37;;;-2.50;99.90;;;;;;5046072;28;20025;-70
2021/12/23 05:27:18;;;;;;;36.88;18.25;;;-2.50;99.90;;;;;;5039226;28;20339;-71
2021/12/23 05:29:45;;;;;;;37.55;17.77;;;-2.50;99.90;;;;;;5046635;28;20098;-71
2021/12/23 05:32:12;;;;;;;39.75;19.13;;;-2.50;99.90;;;;;;5041142;28;20108;-70
2021/12/23 05:34:37;;;;;;;39.17;19.35;;;-2.50;99.90;;;;;;5044226;28;20036;-70
2021/12/23 05:37:03;;;;;;;42.50;20.87;;;-2.50;99.90;;;;;;5038939;28;20020;-71
2021/12/23 05:39:30;;;;;;;37.90;19.13;;;-2.50;99.90;;;;;;5042122;28;20497;-70
2021/12/23 05:41:55;;;;;;;42.17;18.23;;;-2.50;99.90;;;;;;5043091;28;20454;-71
2021/12/23 05:44:21;;;;;;;40.53;18.97;;;-2.40;99.90;;;;;;5024283;28;20044;-70
2021/12/23 05:46:47;;;;;;;41.17;19.30;;;-2.30;99.90;;;;;;5026375;28;20108;-71
2021/12/23 05:49:15;;;;;;;35.37;17.23;;;-2.30;99.90;;;;;;5039779;28;20029;-71
2021/12/23 05:51:41;;;;;;;38.38;18.33;;;-2.30;99.90;;;;;;5044682;28;20029;-70
2021/12/23 05:54:08;;;;;;;35.60;17.93;;;-2.20;99.90;;;;;;5018320;28;20017;-71
2021/12/23 05:56:34;;;;;;;35.08;18.63;;;-2.20;99.90;;;;;;5023987;28;20023;-71
2021/12/23 05:59:00;;;;;;;40.58;19.40;;;-2.20;99.90;;;;;;5038914;28;20033;-71
2021/12/23 06:01:30;;;;;;;36.63;19.23;;;-2.20;99.90;;;;;;5043186;28;20013;-70
2021/12/23 06:03:56;;;;;;;44.22;19.50;;;-2.30;99.90;;;;;;5040261;28;20444;-71
2021/12/23 06:06:23;;;;;;;39.40;19.30;;;-2.30;99.90;;;;;;5043796;28;20029;-71
2021/12/23 06:08:49;;;;;;;34.03;18.55;;;-2.40;99.90;;;;;;5041342;28;20048;-71
2021/12/23 06:11:15;;;;;;;39.50;19.65;;;-2.40;99.90;;;;;;5020380;28;20698;-71
2021/12/23 06:13:42;;;;;;;34.50;18.23;;;-2.40;99.90;;;;;;5027332;28;20378;-71
2021/12/23 06:16:09;;;;;;;34.83;19.75;;;-2.50;99.90;;;;;;5045174;28;20290;-72
2021/12/23 06:18:35;;;;;;;38.50;19.73;;;-2.50;99.90;;;;;;5047297;28;20734;-71
2021/12/23 06:21:01;;;;;;;45.73;20.90;;;-2.40;99.90;;;;;;5044728;28;20032;-72
2021/12/23 06:23:32;;;;;;;38.63;20.27;;;-2.40;99.90;;;;;;5025480;28;20021;-71
2021/12/23 06:25:58;;;;;;;40.65;19.30;;;-2.40;99.90;;;;;;5042830;28;20021;-71
2021/12/23 06:28:25;;;;;;;41.90;20.47;;;-2.40;99.90;;;;;;5047275;28;20027;-71
2021/12/23 06:30:51;;;;;;;39.70;18.83;;;-2.30;99.90;;;;;;5046523;28;20031;-71
2021/12/23 06:33:17;;;;;;;38.13;18.80;;;-2.30;99.90;;;;;;5023257;28;20520;-70
2021/12/23 06:35:42;;;;;;;39.77;19.53;;;-2.30;99.90;;;;;;5046549;28;20028;-71
2021/12/23 06:38:10;;;;;;;42.50;20.30;;;-2.20;99.90;;;;;;5043462;28;20025;-70
2021/12/23 06:40:37;;;;;;;39.45;19.50;;;-2.20;99.90;;;;;;5042310;28;20044;-71
2021/12/23 06:43:03;;;;;;;39.35;18.83;;;-2.20;99.90;;;;;;5040942;28;20179;-70
2021/12/23 06:45:29;;;;;;;40.88;19.35;;;-2.20;99.90;;;;;;5028635;28;20047;-71
2021/12/23 06:47:56;;;;;;;38.30;19.50;;;-2.30;99.90;;;;;;5047957;28;20085;-70
2021/12/23 06:50:23;;;;;;;42.03;18.92;;;-2.40;99.90;;;;;;5045527;28;20017;-72
2021/12/23 06:52:50;;;;;;;36.13;19.75;;;-2.40;99.90;;;;;;5029772;28;20057;-72
2021/12/23 06:55:17;;;;;;;;;;;-2.50;99.90;;;;;;5048548;28;20033;-71
2021/12/23 06:57:43;;;;;;;38.80;18.50;;;-2.50;99.90;;;;;;5048470;28;20691;-71
2021/12/23 07:00:14;;;;;;;35.95;17.85;;;-2.60;99.90;;;;;;5022554;28;20346;-71
2021/12/23 07:02:42;;;;;;;39.70;19.10;;;-2.60;99.90;;;;;;5029574;28;20025;-71
2021/12/23 07:05:09;;;;;;;35.97;18.30;;;-2.50;99.90;;;;;;5038970;28;20035;-71
2021/12/23 07:10:25;;;;;;;42.28;19.40;;;-2.50;99.90;;;;;;5039329;28;20158;-71
2021/12/23 07:12:52;;;;;;;43.17;19.40;;;-2.50;99.90;;;;;;5046886;28;20021;-71
2021/12/23 07:15:18;;;;;;;39.53;19.60;;;-2.50;99.90;;;;;;5041527;28;20130;-71
2021/12/23 07:17:43;;;;;;;34.23;19.27;;;-2.50;99.90;;;;;;5048342;28;20096;-70
2021/12/23 07:20:10;;;;;;;38.40;19.53;;;-2.50;99.90;;;;;;5022947;28;20028;-70
2021/12/23 07:22:36;;;;;;;36.38;18.15;;;-2.50;99.90;;;;;;5026458;28;20520;-71
2021/12/23 07:25:03;;;;;;;38.90;18.63;;;-2.40;99.90;;;;;;5040526;28;20207;-71
2021/12/23 07:27:29;;;;;;;38.78;17.23;;;-2.40;99.90;;;;;;5044521;28;20420;-70
2021/12/23 07:29:55;;;;;;;30.00;17.67;;;-2.50;99.90;;;;;;5043408;28;20025;-71
2021/12/23 07:32:21;;;;;;;38.97;18.87;;;-2.50;99.90;;;;;;5038491;28;20033;-71
2021/12/23 07:34:46;;;;;;;33.60;18.10;;;-2.50;99.90;;;;;;5047800;28;20086;-71
2021/12/23 07:37:13;;;;;;;39.00;17.47;;;-2.40;99.90;;;;;;5043464;28;20028;-71
2021/12/23 07:39:39;;;;;;;;;;;-2.40;99.90;;;;;;5046126;28;20385;-71
2021/12/23 07:42:06;;;;;;;38.53;18.67;;;-2.50;99.90;;;;;;5044316;28;19908;-70
2021/12/23 07:44:33;;;;;;;36.22;17.83;;;-2.40;99.90;;;;;;5024246;28;20852;-70
2021/12/23 07:47:01;;;;;;;36.03;17.48;;;-2.40;99.90;;;;;;5046195;28;20028;-71
2021/12/23 07:49:27;;;;;;;39.35;18.35;;;-2.30;99.90;;;;;;5026877;28;20029;-71
2021/12/23 07:51:53;;;;;;;;;;;-2.30;99.90;;;;;;5046192;28;20037;-72
2021/12/23 07:54:19;;;;;;;36.60;17.23;;;-2.50;99.90;;;;;;5039417;28;19916;-71
2021/12/23 07:56:45;;;;;;;40.17;19.13;;;-2.50;99.90;;;;;;5045837;28;20106;-72
2021/12/23 07:59:11;;;;;;;41.43;20.30;;;-2.60;99.90;;;;;;5043610;28;20499;-71
2021/12/23 08:01:38;;;;;;;36.07;19.00;;;-2.60;99.90;;;;;;5027277;28;20017;-70
2021/12/23 08:04:04;;;;;;;37.47;18.60;;;-2.50;99.90;;;;;;5038854;28;20027;-72
2021/12/23 08:06:31;;;;;;;38.10;18.37;;;-2.50;99.90;;;;;;5046362;28;20406;-71
2021/12/23 08:08:56;;;;;;;39.78;19.20;;;-2.50;99.90;;;;;;5043840;28;20024;-71
2021/12/23 08:11:23;;;;;;;37.80;19.93;;;-2.40;99.90;;;;;;5021739;28;20041;-70
2021/12/23 08:13:51;;;;;;;37.00;19.02;;;-2.30;99.90;;;;;;5048562;28;20017;-74
2021/12/23 08:16:27;;;;;;;41.10;19.73;;;-2.40;99.90;;;;;;5046005;28;20040;-73
2021/12/23 08:18:59;;;;;;;45.17;21.30;;;-2.40;99.90;;;;;;5026994;28;20744;-73
2021/12/23 08:21:26;;;;;;;36.58;17.58;;;-2.40;99.90;;;;;;5035594;28;20566;-72
2021/12/23 08:23:52;;;;;;;41.50;19.45;;;-2.30;99.90;;;;;;5025049;28;20028;-73
2021/12/23 08:26:27;;;;;;;33.77;17.30;;;-2.20;99.90;;;;;;5045353;28;20071;-72
2021/12/23 08:28:53;;;;;;;33.75;17.02;;;-2.10;99.90;;;;;;5024030;28;20017;-72
2021/12/23 08:31:21;;;;;;;38.15;19.85;;;-2.00;99.90;;;;;;5045325;28;20020;-72
2021/12/23 08:33:49;;;;;;;41.10;20.02;;;-2.10;99.90;;;;;;5041499;28;20690;-72
2021/12/23 08:36:20;;;;;;;37.00;17.55;;;-2.10;99.90;;;;;;5044861;28;20025;-72
2021/12/23 08:38:45;;;;;;;39.17;18.92;;;-2.10;99.90;;;;;;5039766;28;20021;-73
2021/12/23 08:41:12;;;;;;;35.33;18.40;;;-2.00;99.90;;;;;;5043596;28;20024;-72
2021/12/23 08:43:38;;;;;;;46.47;21.58;;;-2.00;99.90;;;;;;5020619;28;20385;-72
2021/12/23 08:46:11;;;;;;;46.17;20.03;;;-2.00;99.90;;;;;;5027886;28;20031;-72
2021/12/23 08:48:42;;;;;;;34.83;17.80;;;-2.10;99.90;;;;;;5042867;28;20017;-73
2021/12/23 08:51:08;;;;;;;37.38;18.85;;;-2.10;99.90;;;;;;5046675;28;20032;-72
2021/12/23 08:53:38;;;;;;;43.97;19.08;;;-2.00;99.90;;;;;;5040209;28;20160;-72
2021/12/23 08:56:08;;;;;;;41.50;18.85;;;-1.90;99.90;;;;;;5047585;28;20882;-72
2021/12/23 08:58:37;;;;;;;39.92;18.63;;;-2.00;99.90;;;;;;5042806;28;20063;-73
2021/12/23 09:01:04;;;;;;;37.88;18.52;;;-2.00;99.90;;;;;;5042220;28;20085;-73
2021/12/23 09:03:32;;;;;;;36.47;19.40;;;-1.90;99.90;;;;;;5039716;28;20025;-72
2021/12/23 09:06:02;;;;;;;42.17;19.27;;;-1.90;99.90;;;;;;5045303;28;20091;-74
2021/12/23 09:08:33;;;;;;;37.40;19.20;;;-1.90;99.90;;;;;;5047179;28;20098;-73
2021/12/23 09:11:00;;;;;;;37.25;18.38;;;-2.10;99.90;;;;;;5045277;28;20021;-74
2021/12/23 09:13:30;;;;;;;38.83;19.17;;;-2.10;99.90;;;;;;5049258;28;20017;-73
2021/12/23 09:15:57;;;;;;;34.53;19.30;;;-2.20;99.90;;;;;;5027587;28;20036;-72
2021/12/23 09:18:23;;;;;;;35.60;19.70;;;-2.10;99.90;;;;;;5040983;28;20052;-73
2021/12/23 09:20:56;;;;;;;39.13;18.47;;;-2.10;99.90;;;;;;5038571;28;20749;-73
2021/12/23 09:23:24;;;;;;;36.38;18.48;;;-2.10;99.90;;;;;;5025106;28;20021;-72
2021/12/23 09:25:52;;;;;;;37.20;18.92;;;-2.20;99.90;;;;;;5022911;28;20262;-74
2021/12/23 09:34:06;;;;;;;39.17;19.05;;;-2.10;99.90;;;;;;5045438;28;20031;-74
2021/12/23 09:36:33;;;;;;;37.40;19.27;;;-1.90;99.90;;;;;;5045509;28;20024;-73
2021/12/23 09:38:59;;;;;;;41.78;18.40;;;-2.00;99.90;;;;;;5030249;28;20032;-72
2021/12/23 09:41:27;;;;;;;37.90;19.40;;;-2.00;99.90;;;;;;5045942;28;20028;-73
2021/12/23 09:43:57;;;;;;;38.92;18.52;;;-2.10;99.90;;;;;;5040828;28;20814;-73
2021/12/23 09:46:26;;;;;;;42.45;20.35;;;-2.20;99.90;;;;;;5042641;28;20017;-75
2021/12/23 09:48:53;;;;;;;37.45;19.88;;;-2.20;99.90;;;;;;5044306;28;20043;-74
2021/12/23 09:51:21;;;;;;;38.63;19.17;;;-2.10;99.90;;;;;;5046832;28;20055;-74
2021/12/23 09:53:57;;;;;;;39.35;18.63;;;-2.10;99.90;;;;;;5047330;28;20039;-73
2021/12/23 09:56:24;;;;;;;38.38;18.88;;;-2.00;99.90;;;;;;5035710;28;20143;-73
2021/12/23 09:58:58;;;;;;;37.80;17.67;;;-1.90;99.90;;;;;;5027155;28;20017;-76
2021/12/23 10:01:29;;;;;;;36.80;17.17;;;-1.80;99.90;;;;;;5028663;28;20063;-73
2021/12/23 10:03:59;;;;;;;34.75;18.48;;;-1.80;99.90;;;;;;5026492;28;20071;-75
2021/12/23 10:06:26;;;;;;;38.28;19.52;;;-1.80;99.90;;;;;;5050216;28;20041;-74
2021/12/23 10:08:54;;;;;;;43.58;19.90;;;-1.80;99.90;;;;;;5044187;28;20849;-73
2021/12/23 10:11:35;;;;;;;42.35;20.30;;;-1.90;99.90;;;;;;5047847;28;20191;-75
2021/12/23 10:32:12;;;;;;;40.40;19.17;;;-1.40;99.90;;;;;;5050103;28;20487;-73
2021/12/23 10:37:18;;;;;;;38.63;18.57;;;-1.20;99.90;;;;;;5049248;28;20051;-74
2021/12/23 10:40:03;;;;;;;36.47;19.35;;;-1.20;99.90;;;;;;5023754;28;20040;-74
2021/12/23 10:42:32;;;;;;;38.95;18.30;;;-1.20;99.90;;;;;;5029923;28;20553;-73
2021/12/23 10:45:02;;;;;;;36.75;18.77;;;-1.10;99.90;;;;;;5046520;28;20108;-75
2021/12/23 10:50:22;;;;;;;37.10;18.65;;;-1.40;99.90;;;;;;5048608;28;20052;-75
2021/12/23 10:52:56;;;;;;;35.40;17.88;;;-1.40;99.90;;;;;;5025455;28;20025;-74
2021/12/23 10:58:07;;;;;;;37.80;19.20;;;-1.20;99.90;;;;;;5041012;28;20028;-73
2021/12/23 11:00:37;;;;;;;32.85;17.73;;;-1.10;99.90;;;;;;5028907;28;20124;-74
2021/12/23 11:05:59;;;;;;;35.08;18.95;;;-1.20;99.90;;;;;;5039742;28;20068;-72
2021/12/23 11:11:41;;;;;;;32.75;18.98;;;-1.10;99.90;;;;;;5047933;28;21058;-74
2021/12/23 11:41:51;;;;;;;36.38;17.95;;;-0.90;99.90;;;;;;5039723;28;20077;-76
2021/12/23 11:44:16;;;;;;;32.63;17.08;;;-1.10;99.90;;;;;;5028726;28;20033;-75
2021/12/23 11:46:54;;;;;;;36.03;18.97;;;-1.10;99.90;;;;;;5021080;28;20077;-76
2021/12/23 11:49:20;;;;;;;32.85;18.92;;;-1.00;99.90;;;;;;5046752;28;20124;-78
2021/12/23 11:54:05;;;;;;;33.38;17.48;;;-1.00;99.90;;;;;;5067920;28;20825;-75
2021/12/23 11:56:38;;;;;;;41.28;18.60;;;-0.90;99.90;;;;;;5072805;28;20099;-79
2021/12/23 11:59:09;;;;;;;34.83;18.48;;;-0.80;99.90;;;;;;5057201;28;20104;-76
2021/12/23 12:03:59;;;;;;;34.95;18.55;;;-0.60;99.90;;;;;;5098548;27;20493;-75
2021/12/23 12:06:54;;;;;;;34.50;18.00;;;-0.40;99.90;;;;;;5135701;27;20473;-76
2021/12/23 12:09:27;;;;;;;38.95;18.15;;;-0.40;99.90;;;;;;5091233;27;20862;-73
2021/12/23 12:11:59;;;;;;;35.30;18.25;;;-0.40;99.90;;;;;;5088755;28;20028;-75
2021/12/23 12:14:40;;;;;;;37.53;18.33;;;-0.40;99.90;;;;;;5094434;28;20019;-74
2021/12/23 12:17:24;;;;;;;32.75;16.98;;;-0.40;99.90;;;;;;5094736;28;20059;-74
2021/12/23 12:20:34;;;;;;;30.58;17.33;;;-0.50;99.90;;;;;;5087286;28;20054;-74
2021/12/23 12:23:01;;;;;;;34.17;17.20;;;-0.50;99.90;;;;;;5088289;28;20020;-77
2021/12/23 12:25:59;;;;;;;36.70;17.88;;;-0.60;99.90;;;;;;5094525;28;20019;-76
2021/12/23 12:28:33;;;;;;;34.53;16.70;;;-0.60;99.90;;;;;;5069501;28;20024;-74
2021/12/23 12:31:09;;;;;;;33.45;17.83;;;-0.60;99.90;;;;;;5088244;28;20012;-76
2021/12/23 12:33:39;;;;;;;32.25;16.42;;;-0.70;99.90;;;;;;5092851;28;20024;-74
2021/12/23 12:36:16;;;;;;;36.88;18.50;;;-0.70;99.90;;;;;;5091026;28;20032;-75
2021/12/23 12:38:43;;;;;;;;;;;-0.60;99.90;;;;;;5087680;28;20077;-76
2021/12/23 12:41:30;;;;;;;38.93;18.07;;;-0.60;99.90;;;;;;5094007;28;20170;-75
2021/12/23 12:44:33;;;;;;;31.52;17.30;;;-0.50;99.90;;;;;;5088325;28;20254;-75
2021/12/23 12:47:04;;;;;;;32.83;16.75;;;-0.40;99.90;;;;;;5087815;28;20465;-74
2021/12/23 12:50:08;;;;;;;30.00;17.02;;;-0.40;99.90;;;;;;5089829;28;20112;-75
2021/12/23 12:52:44;;;;;;;33.00;16.52;;;-0.50;99.90;;;;;;5085171;28;20377;-75
2021/12/23 12:55:15;;;;;;;37.33;18.05;;;-0.50;99.90;;;;;;5093125;28;20027;-76
2021/12/23 12:57:53;;;;;;;29.42;15.65;;;-0.40;99.90;;;;;;5086962;28;20047;-75
2021/12/23 13:00:43;;;;;;;33.83;16.58;;;-0.40;99.90;;;;;;5090778;28;20027;-75
2021/12/23 13:03:14;;;;;;;30.55;17.27;;;-0.40;99.90;;;;;;5092127;28;20032;-75
2021/12/23 13:05:53;;;;;;;34.63;16.88;;;-0.40;99.90;;;;;;5087143;28;20026;-75
2021/12/23 13:08:25;;;;;;;34.58;16.88;;;-0.40;99.90;;;;;;5092726;28;20031;-75
2021/12/23 13:10:58;;;;;;;29.15;16.38;;;-0.40;99.90;;;;;;5088412;28;20030;-75
2021/12/23 13:13:40;;;;;;;32.10;16.77;;;-0.40;99.90;;;;;;5088865;28;20036;-76
2021/12/23 13:16:20;;;;;;;32.78;17.08;;;-0.40;99.90;;;;;;5078097;28;20024;-76
2021/12/23 13:18:48;;;;;;;32.05;18.05;;;-0.40;99.90;;;;;;5074520;28;20169;-78
2021/12/23 13:21:23;;;;;;;34.13;18.20;;;-0.40;99.90;;;;;;5077970;28;20485;-75
2021/12/23 13:23:49;;;;;;;34.33;18.08;;;-0.40;99.90;;;;;;5073363;28;20046;-75
2021/12/23 13:26:21;;;;;;;30.95;17.05;;;-0.40;99.90;;;;;;5077949;28;20019;-75
2021/12/23 13:28:58;;;;;;;37.22;18.20;;;-0.50;99.90;;;;;;5074420;28;20024;-79
2021/12/23 13:31:36;;;;;;;31.45;16.67;;;-0.40;99.90;;;;;;5078615;28;20880;-76
2021/12/23 13:34:04;;;;;;;28.92;16.00;;;-0.50;99.90;;;;;;5074201;28;20040;-74
2021/12/23 13:36:45;;;;;;;32.53;17.40;;;-0.40;99.90;;;;;;5077125;28;20021;-80
2021/12/23 13:39:37;;;;;;;34.42;17.40;;;-0.40;99.90;;;;;;5076909;28;20050;-75
2021/12/23 13:42:06;;;;;;;42.03;18.60;;;-0.40;99.90;;;;;;5074523;28;20106;-75
2021/12/23 13:44:35;;;;;;;30.98;17.25;;;-0.40;99.90;;;;;;5076730;28;20355;-75
2021/12/23 13:47:15;;;;;;;32.42;17.58;;;-0.30;99.90;;;;;;5072776;28;20024;-73
2021/12/23 13:49:53;;;;;;;32.17;17.95;;;-0.20;99.90;;;;;;5070751;28;20031;-74
2021/12/23 13:52:43;;;;;;;35.38;18.10;;;-0.20;99.90;;;;;;5076569;28;20465;-74
2021/12/23 13:55:14;;;;;;;32.22;17.40;;;-0.20;99.90;;;;;;5077614;28;20366;-74
2021/12/23 13:57:46;;;;;;;30.17;15.95;;;-0.20;99.90;;;;;;5072003;28;20040;-74
2021/12/23 14:00:34;;;;;;;34.20;18.50;;;-0.20;99.90;;;;;;5075378;28;20061;-74
2021/12/23 14:03:18;;;;;;;38.15;18.25;;;-0.20;99.90;;;;;;5073011;28;20043;-74